Wetterstation-Oberesslingen
Wetterdaten: aktuell Dienstag, 16.04.2024 13:20
Datum Zeit Temperatur BodenT. -10 Temp+5cm Luftfeuchte Bod.Feuchte Luftdruck Regen Wind Richtung Richtung Sonnenschein ET Solar Taupunkt Windchill Windben Empfang
16.04.2024 13:20 10,5 C 13,3 C 13,3 C 56 % 83 cb 1008,5 hPa 0,0 l/m 9,2 km/h (2 Bft) NW 315 0 min 0,127 mm 279 W/m 2,1 C 10,5 C 16,1 km/h (3 Bft) 100,00 %
16.04.2024 12:20 9,9 C 13,3 C 11,7 C 57 % 83 cb 1008,7 hPa 0,0 l/m 7,6 km/h (2 Bft) NW 315 5 min 0,254 mm 251 W/m 1,8 C 9,0 C 17,7 km/h (3 Bft) 100,00 %
16.04.2024 11:20 10,8 C 13,3 C 17,8 C 52 % 83 cb 1008,8 hPa 0,0 l/m 7,6 km/h (2 Bft) NW 315 20 min 0,203 mm 765 W/m 1,3 C 10,8 C 14,5 km/h (3 Bft) 100,00 %
16.04.2024 10:20 8,9 C 13,3 C 10,6 C 55 % 84 cb 1009,2 hPa 0,0 l/m 9,2 km/h (2 Bft) NW 315 30 min 0,152 mm 239 W/m 0,4 C 7,5 C 29,0 km/h (5 Bft) 100,00 %
16.04.2024 09:20 8,0 C 13,3 C 9,4 C 68 % 84 cb 1009,4 hPa 0,0 l/m 6,0 km/h (2 Bft) W-NW 292 25 min 0,076 mm 174 W/m 2,5 C 7,2 C 14,5 km/h (3 Bft) 100,00 %
16.04.2024 08:20 5,6 C 13,3 C 6,1 C 79 % 85 cb 1009,9 hPa 0,0 l/m 2,7 km/h (1 Bft) W 270 0 min 0,000 mm 83 W/m 2,3 C 5,6 C 6,4 km/h (2 Bft) 100,00 %
16.04.2024 07:20 4,8 C 13,9 C 4,4 C 84 % 86 cb 1009,7 hPa 0,2 l/m 2,7 km/h (1 Bft) N-NW 337 0 min 0,000 mm 26 W/m 2,3 C 4,8 C 9,7 km/h (2 Bft) 100,00 %
16.04.2024 06:20 4,7 C 13,9 C 3,3 C 85 % 86 cb 1009,3 hPa 0,4 l/m 2,7 km/h (1 Bft) NW 315 0 min 0,000 mm 0 W/m 2,4 C 4,7 C 6,4 km/h (2 Bft) 100,00 %
16.04.2024 05:20 5,1 C 13,9 C 4,4 C 85 % 86 cb 1009,1 hPa 0,2 l/m 4,3 km/h (1 Bft) W 270 0 min 0,000 mm 0 W/m 2,8 C 5,1 C 6,4 km/h (2 Bft) 100,00 %
16.04.2024 04:20 5,2 C 13,9 C 4,4 C 82 % 86 cb 1009,0 hPa 0,0 l/m 6,0 km/h (2 Bft) W-NW 292 0 min 0,000 mm 0 W/m 2,4 C 4,0 C 9,7 km/h (2 Bft) 100,00 %
16.04.2024 03:20 5,2 C 14,4 C 4,4 C 83 % 88 cb 1009,5 hPa 0,0 l/m 4,3 km/h (1 Bft) NW 315 0 min 0,000 mm 0 W/m 2,6 C 5,2 C 12,9 km/h (3 Bft) 100,00 %
16.04.2024 02:20 5,2 C 14,4 C 4,4 C 85 % 88 cb 1009,8 hPa 0,2 l/m 4,3 km/h (1 Bft) NW 315 0 min 0,000 mm 0 W/m 2,9 C 5,2 C 6,4 km/h (2 Bft) 100,00 %
16.04.2024 01:20 5,1 C 14,4 C 4,4 C 85 % 88 cb 1010,4 hPa 0,2 l/m 4,3 km/h (1 Bft) O-SO 112 0 min 0,000 mm 0 W/m 2,8 C 5,1 C 8,0 km/h (2 Bft) 100,00 %
16.04.2024 00:20 5,2 C 15,0 C 3,9 C 83 % 88 cb 1011,0 hPa 0,2 l/m 4,3 km/h (1 Bft) N-NW 337 0 min 0,000 mm 0 W/m 2,6 C 5,2 C 8,0 km/h (2 Bft) 100,00 %
15.04.2024 23:20 5,6 C 15,0 C 4,4 C 82 % 88 cb 1011,4 hPa 0,2 l/m 4,3 km/h (1 Bft) W 270 0 min 0,025 mm 0 W/m 2,8 C 5,6 C 12,9 km/h (3 Bft) 100,00 %
15.04.2024 22:20 7,7 C 15,0 C 6,7 C 70 % 87 cb 1009,9 hPa 0,0 l/m 10,8 km/h (2 Bft) NW 315 0 min 0,051 mm 0 W/m 2,6 C 5,7 C 22,5 km/h (4 Bft) 100,00 %
15.04.2024 21:20 12,6 C 15,0 C 10,6 C 58 % 86 cb 1007,8 hPa 0,0 l/m 12,4 km/h (2 Bft) W-NW 292 0 min 0,051 mm 0 W/m 4,6 C 12,6 C 25,7 km/h (4 Bft) 100,00 %
15.04.2024 20:20 15,2 C 15,0 C 13,3 C 44 % 85 cb 1005,8 hPa 0,0 l/m 7,6 km/h (2 Bft) N-NW 337 0 min 0,076 mm 0 W/m 3,0 C 15,2 C 17,7 km/h (3 Bft) 100,00 %
15.04.2024 19:20 16,9 C 15,0 C 16,1 C 43 % 84 cb 1004,9 hPa 0,0 l/m 9,2 km/h (2 Bft) NW 315 0 min 0,076 mm 7 W/m 4,2 C 16,9 C 20,9 km/h (4 Bft) 100,00 %
15.04.2024 18:20 17,8 C 15,0 C 17,2 C 39 % 83 cb 1005,0 hPa 0,0 l/m 9,2 km/h (2 Bft) W-NW 292 15 min 0,203 mm 49 W/m 3,7 C 17,8 C 19,3 km/h (3 Bft) 100,00 %
15.04.2024 17:20 19,3 C 15,0 C 25,0 C 47 % 82 cb 1005,3 hPa 0,0 l/m 7,6 km/h (2 Bft) N-NW 337 25 min 0,229 mm 436 W/m 7,7 C 19,3 C 14,5 km/h (3 Bft) 100,00 %
15.04.2024 16:20 18,6 C 15,0 C 23,3 C 54 % 81 cb 1006,3 hPa 0,0 l/m 7,6 km/h (2 Bft) NW 315 30 min 0,254 mm 176 W/m 9,1 C 18,6 C 17,7 km/h (3 Bft) 100,00 %
15.04.2024 15:20 17,3 C 15,0 C 21,1 C 64 % 81 cb 1007,3 hPa 0,0 l/m 6,0 km/h (2 Bft) W-NW 292 30 min 0,229 mm 294 W/m 10,4 C 17,3 C 16,1 km/h (3 Bft) 100,00 %
15.04.2024 14:20 16,6 C 15,0 C 22,2 C 68 % 81 cb 1009,1 hPa 0,0 l/m 4,3 km/h (1 Bft) W-NW 292 5 min 0,102 mm 432 W/m 10,7 C 16,6 C 9,7 km/h (2 Bft) 100,00 %
15.04.2024 14:00 15,7 C 15,0 C 16,1 C 72 % 81 cb 1009,6 hPa 0,0 l/m 2,7 km/h (1 Bft) W-NW 292 0 min 0,102 mm 171 W/m 10,7 C 15,7 C 6,4 km/h (2 Bft) 100,00 %
_ Min-Zeit 06:00 07:50 05:55 18:20 14:00 19:00 - 14:00 - - - - - 10:25 06:05 05:30 03:55
Minimum _ 4,7 C 13,3 C 3,3 C 39 % 81 cb 1004,8 hPa - 2,7 km/h (1 Bft) - - - - - -0,1 C 3,4 C 3,2 km/h (1 Bft) 76,32 %
_ Max-Zeit 16:15 14:00 14:40 01:40 22:50 23:25 23:15 21:15 - - 14:20 16:00 11:25 15:00 16:15 22:00 14:00
Maximum _ 19,6 C 15,0 C 28,3 C 87 % 88 cb 1011,5 hPa 0,2 l/m 15,6 km/h
NW (3 Bft)
- - 5 min 0,254 mm 925 W/m 11,4 C 19,4 C 40,2 km/h
W-NW (6 Bft)
100,00 %
Durchschnitt _ 10,4 C 14,4 C 10,9 C 67 % 85 cb 1008,6 hPa #1,6 l/m 6,3 km/h (2 Bft) NW - #1:20 h #0,812 mm 237 W/m 4,1 C 10,1 C 14,6 km/h (3 Bft) 99,73 %